createdAt,value
2022-08-03T00:00:35.702Z,9.82
2022-08-03T00:03:04.021Z,10.32
2022-08-03T00:05:33.332Z,8.95
2022-08-03T00:08:02.911Z,9.30
2022-08-03T00:10:32.696Z,10.20
2022-08-03T00:13:00.837Z,7.75
2022-08-03T00:15:29.023Z,10.63
2022-08-03T00:17:57.212Z,8.07
2022-08-03T00:20:26.318Z,8.88
2022-08-03T00:22:54.531Z,8.35
2022-08-03T00:25:24.258Z,10.07
2022-08-03T00:27:52.492Z,10.82
2022-08-03T00:30:20.787Z,11.70
2022-08-03T00:32:49.707Z,6.88
2022-08-03T00:35:32.462Z,9.57
2022-08-03T00:38:05.554Z,8.60
2022-08-03T00:40:35.638Z,8.80
2022-08-03T00:43:07.115Z,9.07
2022-08-03T00:45:38.692Z,8.38
2022-08-03T00:48:29.526Z,8.93
2022-08-03T00:50:59.962Z,11.07
2022-08-03T00:53:29.000Z,10.13
2022-08-03T00:55:58.725Z,13.45
2022-08-03T00:58:26.938Z,11.15
2022-08-03T01:00:55.138Z,7.97
2022-08-03T01:03:23.356Z,14.40
2022-08-03T01:05:57.698Z,10.07
2022-08-03T01:08:37.342Z,10.00
2022-08-03T01:11:17.820Z,10.05
2022-08-03T01:14:02.047Z,14.90
2022-08-03T01:16:55.079Z,12.95
2022-08-03T01:19:43.789Z,10.73
2022-08-03T01:22:43.239Z,11.90
2022-08-03T01:25:26.121Z,12.10
2022-08-03T01:28:19.841Z,12.07
2022-08-03T01:30:51.224Z,10.00
2022-08-03T01:33:25.122Z,8.18
2022-08-03T01:36:00.839Z,13.27
2022-08-03T01:38:34.049Z,12.88
2022-08-03T01:41:08.846Z,10.88
2022-08-03T01:44:27.593Z,15.52
2022-08-03T01:46:30.218Z,13.35
2022-08-03T01:48:59.983Z,9.02
2022-08-03T01:51:57.750Z,11.55
2022-08-03T01:54:20.026Z,10.05
2022-08-03T01:56:51.051Z,10.13
2022-08-03T01:59:21.759Z,13.45
2022-08-03T02:02:19.573Z,15.18
2022-08-03T02:04:42.740Z,10.32
2022-08-03T02:07:11.985Z,11.52
2022-08-03T02:09:41.659Z,13.68
2022-08-03T02:12:11.678Z,10.48
2022-08-03T02:14:42.193Z,14.43
2022-08-03T02:17:13.851Z,11.98
2022-08-03T02:19:43.939Z,11.68
2022-08-03T02:22:14.684Z,10.73
2022-08-03T02:24:44.457Z,9.68
2022-08-03T02:27:24.258Z,11.25
2022-08-03T02:29:56.657Z,14.02
2022-08-03T02:32:32.640Z,13.82
2022-08-03T02:35:03.701Z,11.85
2022-08-03T02:37:49.604Z,14.23
2022-08-03T02:40:20.786Z,11.82
2022-08-03T02:42:52.778Z,9.65
2022-08-03T02:45:22.688Z,14.90
2022-08-03T02:47:54.947Z,10.75
2022-08-03T02:50:25.043Z,12.02
2022-08-03T02:52:54.255Z,12.00
2022-08-03T02:55:24.074Z,10.50
2022-08-03T02:57:53.958Z,13.75
2022-08-03T03:00:28.156Z,12.65
2022-08-03T03:03:00.958Z,15.27
2022-08-03T03:05:55.047Z,12.52
2022-08-03T03:08:26.821Z,11.80
2022-08-03T03:10:58.600Z,13.57
2022-08-03T03:13:28.724Z,16.63
2022-08-03T03:16:01.512Z,10.70
2022-08-03T03:18:33.220Z,12.38
2022-08-03T03:21:04.324Z,13.18
2022-08-03T03:23:34.118Z,14.68
2022-08-03T03:26:03.129Z,9.73
2022-08-03T03:28:33.072Z,15.68
2022-08-03T03:31:02.178Z,14.73
2022-08-03T03:33:31.877Z,11.80
2022-08-03T03:36:00.517Z,12.38
2022-08-03T03:38:29.198Z,15.10
2022-08-03T03:40:57.604Z,13.10
2022-08-03T03:43:26.241Z,15.35
2022-08-03T03:45:55.905Z,14.95
2022-08-03T03:48:25.558Z,11.18
2022-08-03T03:50:57.252Z,13.43
2022-08-03T03:53:25.993Z,14.05
2022-08-03T03:56:01.914Z,14.35
2022-08-03T03:58:32.935Z,14.90
2022-08-03T04:01:01.555Z,13.38
2022-08-03T04:03:29.954Z,12.68
2022-08-03T04:06:17.645Z,16.38
2022-08-03T04:09:04.321Z,12.85
2022-08-03T04:11:40.814Z,15.88
2022-08-03T04:14:14.918Z,11.70
2022-08-03T04:16:47.639Z,13.07
2022-08-03T04:19:23.274Z,15.15
2022-08-03T04:21:59.096Z,14.90
2022-08-03T04:24:41.577Z,16.95
2022-08-03T04:27:13.113Z,14.40
2022-08-03T04:29:48.544Z,13.90
2022-08-03T04:32:18.306Z,15.73
2022-08-03T04:34:47.244Z,14.93
2022-08-03T04:37:28.337Z,13.50
2022-08-03T04:39:59.817Z,14.73
2022-08-03T04:42:28.922Z,13.93
2022-08-03T04:45:01.295Z,13.57
2022-08-03T04:47:32.578Z,16.77
2022-08-03T04:50:02.601Z,16.30
2022-08-03T04:52:33.126Z,18.38
2022-08-03T04:55:01.361Z,15.02
2022-08-03T04:57:29.528Z,17.35
2022-08-03T05:00:02.578Z,18.83
2022-08-03T05:02:32.821Z,11.93
2022-08-03T05:05:01.224Z,17.30
2022-08-03T05:07:35.843Z,19.73
2022-08-03T05:10:14.921Z,12.77
2022-08-03T05:12:45.348Z,14.73
2022-08-03T05:15:13.963Z,16.98
2022-08-03T05:17:42.791Z,15.38
2022-08-03T05:20:12.643Z,16.80
2022-08-03T05:22:42.333Z,12.77
2022-08-03T05:25:16.966Z,15.55
2022-08-03T05:27:49.171Z,15.90
2022-08-03T05:30:30.502Z,14.80
2022-08-03T05:33:04.579Z,13.18
2022-08-03T05:36:02.728Z,17.05
2022-08-03T05:38:28.530Z,19.00
2022-08-03T05:41:22.442Z,18.23
2022-08-03T05:43:46.721Z,19.02
2022-08-03T05:46:15.020Z,13.88
2022-08-03T05:48:43.954Z,16.17
2022-08-03T05:51:12.425Z,21.50
2022-08-03T05:53:43.080Z,13.80
2022-08-03T05:56:13.651Z,11.65
2022-08-03T05:58:44.742Z,16.15
2022-08-03T06:01:13.063Z,15.48
2022-08-03T06:03:41.644Z,14.00
2022-08-03T06:06:10.096Z,12.82
2022-08-03T06:08:38.424Z,17.80
2022-08-03T06:11:08.225Z,14.40
2022-08-03T06:13:37.157Z,15.10
2022-08-03T06:16:06.487Z,13.35
2022-08-03T06:18:34.839Z,18.17
2022-08-03T06:21:14.352Z,18.08
2022-08-03T06:23:52.752Z,18.17
2022-08-03T06:26:25.194Z,14.52
2022-08-03T06:28:54.463Z,14.90
2022-08-03T06:31:26.005Z,11.63
2022-08-03T06:34:33.596Z,14.60
2022-08-03T06:36:58.623Z,20.38
2022-08-03T06:39:30.570Z,16.77
2022-08-03T06:42:00.173Z,21.88
2022-08-03T06:44:28.368Z,13.05
2022-08-03T06:46:56.646Z,18.45
2022-08-03T06:49:25.076Z,22.52
2022-08-03T06:52:03.131Z,19.77
2022-08-03T06:54:36.222Z,18.17
2022-08-03T06:57:08.202Z,18.05
2022-08-03T07:00:10.591Z,17.80
2022-08-03T07:02:24.770Z,20.60
2022-08-03T07:04:57.190Z,14.82
2022-08-03T07:07:25.902Z,22.23
2022-08-03T07:09:56.908Z,22.08
2022-08-03T07:12:29.345Z,18.88
2022-08-03T07:15:02.293Z,21.35
2022-08-03T07:17:33.934Z,17.40
2022-08-03T07:20:04.312Z,19.13
2022-08-03T07:22:32.508Z,17.15
2022-08-03T07:25:00.660Z,17.83
2022-08-03T07:27:31.371Z,13.77
2022-08-03T07:30:00.536Z,13.10
2022-08-03T07:32:31.399Z,18.83
2022-08-03T07:35:01.033Z,19.58
2022-08-03T07:37:31.269Z,17.02
2022-08-03T07:40:00.506Z,20.38
2022-08-03T07:42:31.285Z,14.65
2022-08-03T07:44:59.943Z,17.98
2022-08-03T07:47:34.821Z,18.13
2022-08-03T07:50:03.509Z,19.13
2022-08-03T07:52:51.784Z,18.17
2022-08-03T07:55:21.928Z,15.75
2022-08-03T07:58:06.088Z,13.65
2022-08-03T08:00:34.670Z,15.02
2022-08-03T08:03:03.238Z,15.55
2022-08-03T08:05:36.055Z,16.88
2022-08-03T08:08:05.204Z,16.20
2022-08-03T08:10:33.870Z,19.65
2022-08-03T08:13:04.156Z,19.52
2022-08-03T08:15:32.787Z,15.02
2022-08-03T08:18:02.680Z,16.73
2022-08-03T08:20:34.892Z,17.55
2022-08-03T08:23:37.795Z,15.35
2022-08-03T08:25:59.141Z,14.07
2022-08-03T08:28:33.260Z,15.50
2022-08-03T08:31:02.298Z,11.68
2022-08-03T08:34:01.070Z,17.38
2022-08-03T08:36:19.331Z,14.75
2022-08-03T08:38:47.855Z,13.25
2022-08-03T08:41:16.898Z,14.40
2022-08-03T08:43:47.112Z,19.50
2022-08-03T08:46:23.217Z,14.35
2022-08-03T08:48:54.719Z,15.55
2022-08-03T08:51:52.749Z,17.60
2022-08-03T08:54:22.006Z,18.23
2022-08-03T08:56:52.262Z,13.57
2022-08-03T08:59:22.984Z,14.32
2022-08-03T09:01:51.458Z,15.82
2022-08-03T09:04:19.977Z,15.52
2022-08-03T09:07:10.432Z,17.10
2022-08-03T09:10:08.298Z,19.27
2022-08-03T09:12:42.297Z,19.77
2022-08-03T09:15:26.040Z,21.90
2022-08-03T09:17:57.188Z,14.38
2022-08-03T09:20:28.084Z,11.27
2022-08-03T09:23:00.093Z,17.98
2022-08-03T09:25:33.958Z,20.13
2022-08-03T09:28:11.904Z,15.63
2022-08-03T09:30:45.001Z,14.02
2022-08-03T09:33:16.476Z,17.65
2022-08-03T09:35:55.294Z,14.55
2022-08-03T09:38:27.646Z,15.80
2022-08-03T09:41:00.103Z,15.23
2022-08-03T09:43:29.463Z,14.60
2022-08-03T09:46:07.628Z,16.85
2022-08-03T09:48:37.464Z,17.35
2022-08-03T09:51:14.268Z,8.15
2022-08-03T09:54:00.283Z,12.88
2022-08-03T09:56:44.509Z,12.65
2022-08-03T09:59:13.971Z,15.07
2022-08-03T10:01:43.674Z,18.27
2022-08-03T10:04:18.327Z,14.10
2022-08-03T10:06:47.725Z,14.95
2022-08-03T10:09:17.939Z,12.07
2022-08-03T10:11:47.855Z,17.20
2022-08-03T10:14:19.906Z,14.57
2022-08-03T10:16:50.557Z,13.27
2022-08-03T10:19:19.472Z,15.93
2022-08-03T10:21:52.203Z,17.55
2022-08-03T10:24:27.368Z,12.18
2022-08-03T10:27:03.660Z,14.80
2022-08-03T10:29:39.199Z,15.82
2022-08-03T10:32:17.621Z,14.77
2022-08-03T10:34:47.873Z,13.88
2022-08-03T10:37:19.293Z,11.00
2022-08-03T10:39:56.304Z,16.45
2022-08-03T10:42:27.508Z,13.55
2022-08-03T10:45:06.502Z,13.75
2022-08-03T10:47:37.529Z,13.20
2022-08-03T10:50:07.437Z,15.73
2022-08-03T10:52:41.317Z,12.20
2022-08-03T10:55:49.273Z,13.93
2022-08-03T10:58:57.982Z,13.60
2022-08-03T11:02:00.230Z,12.10
2022-08-03T11:04:30.980Z,15.40
2022-08-03T11:07:22.244Z,15.32
2022-08-03T11:09:52.817Z,14.35
2022-08-03T11:12:30.608Z,15.85
2022-08-03T11:15:03.560Z,11.65
2022-08-03T11:17:33.284Z,11.65
2022-08-03T11:20:04.964Z,7.93
2022-08-03T11:22:54.397Z,16.98
2022-08-03T11:25:53.195Z,18.00
2022-08-03T11:28:30.672Z,15.05
2022-08-03T11:31:49.942Z,14.93
2022-08-03T11:34:19.061Z,13.43
2022-08-03T11:37:28.827Z,13.50
2022-08-03T11:39:59.850Z,18.92
2022-08-03T11:42:48.435Z,15.65
2022-08-03T11:45:17.974Z,15.45
2022-08-03T11:47:50.117Z,11.55
2022-08-03T11:50:21.393Z,8.80
2022-08-03T11:52:52.212Z,10.82
2022-08-03T11:55:22.300Z,13.00
2022-08-03T11:59:18.875Z,11.73
2022-08-03T12:00:40.571Z,13.25
2022-08-03T12:03:11.844Z,11.45
2022-08-03T12:05:51.289Z,18.52
2022-08-03T12:08:34.369Z,14.35
2022-08-03T12:11:06.676Z,12.32
2022-08-03T12:14:35.763Z,12.98
2022-08-03T12:16:29.706Z,12.18
2022-08-03T12:18:59.532Z,12.65
2022-08-03T12:21:28.773Z,10.52
2022-08-03T12:24:03.741Z,17.70
2022-08-03T12:26:52.224Z,14.05
2022-08-03T12:29:28.726Z,11.15
2022-08-03T12:31:57.508Z,9.77
2022-08-03T12:34:25.792Z,15.13
2022-08-03T12:37:00.113Z,12.43
2022-08-03T12:39:31.495Z,12.98
2022-08-03T12:41:59.869Z,11.20
2022-08-03T12:44:32.800Z,14.73
2022-08-03T12:47:02.257Z,9.32
2022-08-03T12:49:30.837Z,9.98
2022-08-03T12:52:05.369Z,8.27
2022-08-03T12:54:36.927Z,12.25
2022-08-03T12:57:07.152Z,12.80
2022-08-03T12:59:40.555Z,9.93
2022-08-03T13:02:17.758Z,10.13
2022-08-03T13:04:47.833Z,9.70
2022-08-03T13:07:18.282Z,7.82
2022-08-03T13:09:53.005Z,10.25
2022-08-03T13:12:22.987Z,7.10
2022-08-03T13:14:54.815Z,11.30
2022-08-03T13:17:23.114Z,7.25
2022-08-03T13:19:51.985Z,6.35
2022-08-03T13:22:22.672Z,6.13
2022-08-03T13:24:55.978Z,8.18
2022-08-03T13:28:04.322Z,9.85
2022-08-03T13:30:13.854Z,10.20
2022-08-03T13:32:49.548Z,4.78
2022-08-03T13:35:17.912Z,8.40
2022-08-03T13:37:47.776Z,10.15
2022-08-03T13:40:19.066Z,11.48
2022-08-03T13:42:52.318Z,8.13
2022-08-03T13:45:20.571Z,10.65
2022-08-03T13:47:49.607Z,7.28
2022-08-03T13:50:18.165Z,8.82
2022-08-03T13:52:46.349Z,9.35
2022-08-03T13:55:14.670Z,10.55
2022-08-03T13:58:05.418Z,11.13
2022-08-03T14:00:32.651Z,10.18
2022-08-03T14:03:13.241Z,10.25
2022-08-03T14:05:43.619Z,11.65
2022-08-03T14:08:12.936Z,7.07
2022-08-03T14:10:45.053Z,12.50
2022-08-03T14:13:16.812Z,9.63
2022-08-03T14:15:50.271Z,10.75
2022-08-03T14:18:29.136Z,9.75
2022-08-03T14:21:07.510Z,9.55
2022-08-03T14:23:38.274Z,8.40
2022-08-03T14:26:07.548Z,8.18
2022-08-03T14:28:38.272Z,9.85
2022-08-03T14:31:08.462Z,10.70
2022-08-03T14:33:54.919Z,13.75
2022-08-03T14:36:23.435Z,9.07
2022-08-03T14:38:51.630Z,7.43
2022-08-03T14:41:20.394Z,7.78
2022-08-03T14:44:02.093Z,8.80
2022-08-03T14:46:32.103Z,12.35
2022-08-03T14:50:29.226Z,10.25
2022-08-03T14:51:51.341Z,8.10
2022-08-03T14:54:22.942Z,7.38
2022-08-03T14:56:51.308Z,12.52
2022-08-03T14:59:20.860Z,7.03
2022-08-03T15:02:04.649Z,10.70
2022-08-03T15:04:35.890Z,8.82
2022-08-03T15:07:04.405Z,11.80
2022-08-03T15:09:32.638Z,11.48
2022-08-03T15:12:01.006Z,7.68
2022-08-03T15:14:33.436Z,10.90
2022-08-03T15:17:03.366Z,9.15
2022-08-03T15:20:00.723Z,7.70
2022-08-03T15:22:24.871Z,10.80
2022-08-03T15:24:56.022Z,13.90
2022-08-03T15:27:25.070Z,9.63
2022-08-03T15:30:04.801Z,9.55
2022-08-03T15:32:38.380Z,14.68
2022-08-03T15:35:07.292Z,6.82
2022-08-03T15:37:35.627Z,7.97
2022-08-03T15:40:04.406Z,7.63
2022-08-03T15:42:34.455Z,7.65
2022-08-03T15:45:05.172Z,9.48
2022-08-03T15:47:33.385Z,6.82
2022-08-03T15:50:04.307Z,8.50
2022-08-03T15:52:34.773Z,8.40
2022-08-03T15:55:03.333Z,7.28
2022-08-03T15:57:31.687Z,7.85
2022-08-03T15:59:59.845Z,9.35
2022-08-03T16:02:29.592Z,9.55
2022-08-03T16:04:57.866Z,11.32
2022-08-03T16:07:40.041Z,8.85
2022-08-03T16:10:09.717Z,9.82
2022-08-03T16:12:38.715Z,9.32
2022-08-03T16:15:09.373Z,10.75
2022-08-03T16:17:39.306Z,9.07
2022-08-03T16:20:31.396Z,8.13
2022-08-03T16:22:59.055Z,5.82
2022-08-03T16:25:29.711Z,5.13
2022-08-03T16:28:07.737Z,9.35
2022-08-03T16:30:41.563Z,12.65
2022-08-03T16:33:16.681Z,8.07
2022-08-03T16:35:46.603Z,7.93
2022-08-03T16:38:18.893Z,9.13
2022-08-03T16:40:51.746Z,7.60
2022-08-03T16:43:22.123Z,6.85
2022-08-03T16:45:50.809Z,7.10
2022-08-03T16:48:21.678Z,6.93
2022-08-03T16:50:49.992Z,8.10
2022-08-03T16:53:33.266Z,8.77
2022-08-03T16:56:10.094Z,8.55
2022-08-03T16:58:42.295Z,11.57
2022-08-03T17:01:22.098Z,7.32
2022-08-03T17:04:01.717Z,9.60
2022-08-03T17:06:34.314Z,7.45
2022-08-03T17:09:04.366Z,10.55
2022-08-03T17:11:44.047Z,11.25
2022-08-03T17:14:17.433Z,8.30
2022-08-03T17:16:53.935Z,7.45
2022-08-03T17:19:26.569Z,10.15
2022-08-03T17:22:04.189Z,9.50
2022-08-03T17:24:36.946Z,9.30
2022-08-03T17:28:41.393Z,5.05
2022-08-03T17:30:07.823Z,6.93
2022-08-03T17:32:42.822Z,10.48
2022-08-03T17:35:22.707Z,9.88
2022-08-03T17:38:03.466Z,10.55
2022-08-03T17:40:33.430Z,7.65
2022-08-03T17:44:13.643Z,6.63
2022-08-03T17:45:55.094Z,6.05
2022-08-03T17:48:25.067Z,10.18
2022-08-03T17:51:01.350Z,7.95
2022-08-03T17:53:33.542Z,10.05
2022-08-03T17:56:42.500Z,7.95
2022-08-03T17:59:15.593Z,8.80
2022-08-03T18:02:29.544Z,6.13
2022-08-03T18:05:16.458Z,8.75
2022-08-03T18:07:59.237Z,7.97
2022-08-03T18:10:50.238Z,8.20
2022-08-03T18:13:24.939Z,7.72
2022-08-03T18:16:03.217Z,7.03
2022-08-03T18:18:36.934Z,11.35
2022-08-03T18:21:10.934Z,7.63
2022-08-03T18:23:51.648Z,6.80
2022-08-03T18:26:20.141Z,6.55
2022-08-03T18:28:50.741Z,5.85
2022-08-03T18:31:59.982Z,5.40
2022-08-03T18:34:17.627Z,7.97
2022-08-03T18:36:59.435Z,5.65
2022-08-03T18:39:30.119Z,6.40
2022-08-03T18:42:00.236Z,8.38
2022-08-03T18:44:46.614Z,8.45
2022-08-03T18:47:52.188Z,5.97
2022-08-03T18:50:30.720Z,8.60
2022-08-03T18:53:15.697Z,8.77
2022-08-03T18:56:01.976Z,5.43
2022-08-03T18:58:38.652Z,5.07
2022-08-03T19:01:58.379Z,7.32
2022-08-03T19:04:13.854Z,8.25
2022-08-03T19:06:46.461Z,6.80
2022-08-03T19:09:27.915Z,10.50
2022-08-03T19:12:12.553Z,9.13
2022-08-03T19:14:56.264Z,6.05
2022-08-03T19:17:29.244Z,6.40
2022-08-03T19:20:01.546Z,6.45
2022-08-03T19:22:30.799Z,7.35
2022-08-03T19:25:02.445Z,10.43
2022-08-03T19:27:33.396Z,6.35
2022-08-03T19:30:14.112Z,5.50
2022-08-03T19:32:51.570Z,5.47
2022-08-03T19:35:51.473Z,7.20
2022-08-03T19:38:08.865Z,7.22
2022-08-03T19:40:51.077Z,5.20
2022-08-03T19:43:26.450Z,11.20
2022-08-03T19:46:06.180Z,5.28
2022-08-03T19:48:36.629Z,8.52
2022-08-03T19:51:12.132Z,6.07
2022-08-03T19:53:45.114Z,6.45
2022-08-03T19:56:14.612Z,6.22
2022-08-03T19:58:45.878Z,6.45
2022-08-03T20:01:21.756Z,5.32
2022-08-03T20:03:52.778Z,7.80
2022-08-03T20:06:24.824Z,8.85
2022-08-03T20:08:55.189Z,5.72
2022-08-03T20:11:28.682Z,7.63
2022-08-03T20:13:59.638Z,6.45
2022-08-03T20:16:28.049Z,7.53
2022-08-03T20:18:56.254Z,8.18
2022-08-03T20:21:26.236Z,9.63
2022-08-03T20:24:02.875Z,7.53
2022-08-03T20:26:54.450Z,9.73
2022-08-03T20:30:05.003Z,6.97
2022-08-03T20:32:24.714Z,7.15
2022-08-03T20:34:53.440Z,10.77
2022-08-03T20:37:21.761Z,10.38
2022-08-03T20:39:50.119Z,6.38
2022-08-03T20:42:21.219Z,7.40
2022-08-03T20:45:05.593Z,10.38
2022-08-03T20:47:36.917Z,6.13
2022-08-03T20:50:21.805Z,9.43
2022-08-03T20:52:50.808Z,8.73
2022-08-03T20:55:20.498Z,6.13
2022-08-03T20:58:09.153Z,5.72
2022-08-03T21:00:39.093Z,8.40
2022-08-03T21:03:08.998Z,7.28
2022-08-03T21:05:50.987Z,8.40
2022-08-03T21:08:24.040Z,7.22
2022-08-03T21:10:54.861Z,6.57
2022-08-03T21:13:28.674Z,7.72
2022-08-03T21:16:12.337Z,11.38
2022-08-03T21:18:47.037Z,7.85
2022-08-03T21:21:17.858Z,7.07
2022-08-03T21:23:50.002Z,7.18
2022-08-03T21:26:20.439Z,7.53
2022-08-03T21:28:50.002Z,6.35
2022-08-03T21:31:25.692Z,8.70
2022-08-03T21:33:57.585Z,7.47
2022-08-03T21:36:29.278Z,6.80
2022-08-03T21:38:58.757Z,9.18
2022-08-03T21:41:29.309Z,7.28
2022-08-03T21:43:58.285Z,7.50
2022-08-03T21:46:30.885Z,8.90
2022-08-03T21:50:07.021Z,5.35
2022-08-03T21:51:55.442Z,9.30
2022-08-03T21:54:28.988Z,6.97
2022-08-03T21:57:03.376Z,5.43
2022-08-03T21:59:37.008Z,6.95
2022-08-03T22:02:13.823Z,8.15
2022-08-03T22:04:56.975Z,5.82
2022-08-03T22:07:27.125Z,7.80
2022-08-03T22:09:56.668Z,6.95
2022-08-03T22:12:26.735Z,5.68
2022-08-03T22:15:00.418Z,7.95
2022-08-03T22:17:55.191Z,9.48
2022-08-03T22:20:23.034Z,6.82
2022-08-03T22:22:56.606Z,5.75
2022-08-03T22:25:30.644Z,10.73
2022-08-03T22:28:02.367Z,5.40
2022-08-03T22:30:31.707Z,5.78
2022-08-03T22:33:04.461Z,6.95
2022-08-03T22:35:47.540Z,6.07
2022-08-03T22:38:20.582Z,5.25
2022-08-03T22:40:50.995Z,5.88
2022-08-03T22:43:23.458Z,8.20
2022-08-03T22:46:09.131Z,8.00
2022-08-03T22:48:42.220Z,6.45
2022-08-03T22:51:11.085Z,8.63
2022-08-03T22:53:40.703Z,6.25
2022-08-03T22:56:09.264Z,9.27
2022-08-03T22:58:37.450Z,9.52
2022-08-03T23:01:09.094Z,6.28
2022-08-03T23:04:00.863Z,6.78
2022-08-03T23:06:35.713Z,7.30
2022-08-03T23:09:08.310Z,8.32
2022-08-03T23:11:45.437Z,6.65
2022-08-03T23:14:17.160Z,6.57
2022-08-03T23:16:47.853Z,10.50
2022-08-03T23:19:25.199Z,5.88
2022-08-03T23:22:02.583Z,6.55
2022-08-03T23:24:35.988Z,7.75
2022-08-03T23:27:05.445Z,8.80
2022-08-03T23:29:37.148Z,6.85
2022-08-03T23:32:07.341Z,4.55
2022-08-03T23:34:58.648Z,6.50
2022-08-03T23:37:27.879Z,6.55
2022-08-03T23:39:58.352Z,7.43
2022-08-03T23:42:27.507Z,6.75
2022-08-03T23:44:59.463Z,8.30
2022-08-03T23:47:47.074Z,5.07
2022-08-03T23:50:18.731Z,6.72
2022-08-03T23:53:09.972Z,7.90
2022-08-03T23:56:08.283Z,8.48
2022-08-03T23:59:03.261Z,5.40
